Time;durP1;ratioP1;P1;durP2;ratioP2;P2;SDS_P1;SDS_P2;PMS_P1;PMS_P2;Temp;Humidity;BMP_temperature;BMP_pressure;BME280_temperature;BME280_humidity;BME280_pressure;Samples;Min_cycle;Max_cycle;Signal;HPM_P1;HPM_P2
2021/04/28 00:01:28;;;;;;;1.20;1.17;;;8.60;88.30;;;;;;5034057;28;20466;-71
2021/04/28 00:03:56;;;;;;;1.43;1.20;;;8.40;88.10;;;;;;5034058;28;20547;-71
2021/04/28 00:06:22;;;;;;;1.90;1.77;;;8.30;88.50;;;;;;5031563;28;20463;-70
2021/04/28 00:08:49;;;;;;;1.20;0.97;;;8.40;88.10;;;;;;5033804;28;20469;-71
2021/04/28 00:11:15;;;;;;;2.03;1.33;;;8.40;88.20;;;;;;5030780;28;20490;-71
2021/04/28 00:13:42;;;;;;;1.40;1.30;;;8.30;89.00;;;;;;5033681;28;20466;-71
2021/04/28 00:16:09;;;;;;;2.23;1.67;;;8.20;88.70;;;;;;5029626;28;20454;-71
2021/04/28 00:18:36;;;;;;;1.20;1.20;;;8.10;89.50;;;;;;5033822;28;20961;-71
2021/04/28 00:21:04;;;;;;;1.60;1.27;;;8.10;90.00;;;;;;5031176;28;20485;-70
2021/04/28 00:23:31;;;;;;;1.60;1.40;;;8.00;89.90;;;;;;5033943;28;21074;-71
2021/04/28 00:25:58;;;;;;;1.20;1.10;;;8.00;90.00;;;;;;5029362;28;20461;-70
2021/04/28 00:28:25;;;;;;;1.50;1.30;;;8.00;90.10;;;;;;5033327;28;20462;-71
2021/04/28 00:30:51;;;;;;;1.50;1.40;;;8.10;90.20;;;;;;5029426;28;20507;-72
2021/04/28 00:33:18;;;;;;;1.30;1.20;;;8.10;90.30;;;;;;5033528;28;20463;-71
2021/04/28 00:35:46;;;;;;;1.97;1.63;;;8.10;89.90;;;;;;5030346;28;20463;-71
2021/04/28 00:38:12;;;;;;;2.70;1.70;;;8.30;89.20;;;;;;5031963;28;20512;-70
2021/04/28 00:40:40;;;;;;;1.30;1.30;;;8.10;89.70;;;;;;5030217;28;20489;-71
2021/04/28 00:43:07;;;;;;;4.90;1.57;;;8.10;90.20;;;;;;5033325;28;20465;-71
2021/04/28 00:45:34;;;;;;;1.40;1.10;;;8.10;90.30;;;;;;5030051;28;21014;-71
2021/04/28 00:48:03;;;;;;;1.30;1.10;;;8.10;90.50;;;;;;5033001;28;20470;-70
2021/04/28 00:50:33;;;;;;;1.73;1.47;;;8.10;90.50;;;;;;5029993;28;20487;-70
2021/04/28 00:53:01;;;;;;;1.40;1.37;;;8.00;90.10;;;;;;5032701;28;20458;-71
2021/04/28 00:55:28;;;;;;;1.20;1.03;;;7.90;90.90;;;;;;5030118;28;20539;-71
2021/04/28 00:57:55;;;;;;;1.50;1.50;;;7.90;91.00;;;;;;5033184;28;20464;-70
2021/04/28 01:00:24;;;;;;;1.50;1.10;;;8.00;90.50;;;;;;5029800;28;20982;-70
2021/04/28 01:02:51;;;;;;;1.50;1.33;;;8.10;90.60;;;;;;5032935;28;20459;-71
2021/04/28 01:05:19;;;;;;;1.20;1.00;;;8.20;89.70;;;;;;5030111;28;20493;-71
2021/04/28 01:07:47;;;;;;;1.57;1.40;;;7.90;90.80;;;;;;5032601;28;20485;-71
2021/04/28 01:10:20;;;;;;;2.17;1.80;;;7.90;91.10;;;;;;5029786;28;20452;-70
2021/04/28 01:12:46;;;;;;;1.33;1.20;;;7.90;90.80;;;;;;5032516;28;20457;-71
2021/04/28 01:15:18;;;;;;;4.27;1.73;;;7.80;91.10;;;;;;5029637;28;20454;-71
2021/04/28 01:17:44;;;;;;;1.80;1.37;;;7.80;91.80;;;;;;5032299;28;21110;-70
2021/04/28 01:20:15;;;;;;;1.20;1.00;;;7.90;91.20;;;;;;5028099;28;20491;-70
2021/04/28 01:22:44;;;;;;;1.30;1.20;;;7.80;92.10;;;;;;5032106;28;20522;-70
2021/04/28 01:25:14;;;;;;;1.53;1.37;;;7.60;92.10;;;;;;5029144;28;20490;-70
2021/04/28 01:27:44;;;;;;;2.50;2.03;;;7.60;92.00;;;;;;5031983;28;20462;-71
2021/04/28 01:30:15;;;;;;;1.67;1.67;;;7.80;91.70;;;;;;5029507;28;20465;-70
2021/04/28 01:32:46;;;;;;;1.20;1.10;;;7.80;91.70;;;;;;5030854;28;20470;-70
2021/04/28 01:35:16;;;;;;;1.90;1.50;;;7.80;91.30;;;;;;5029225;28;20512;-70
2021/04/28 01:37:44;;;;;;;1.50;1.20;;;7.60;92.00;;;;;;5031760;28;20486;-70
2021/04/28 01:40:14;;;;;;;1.70;1.20;;;7.50;92.50;;;;;;5029147;28;20532;-70
2021/04/28 01:42:42;;;;;;;1.73;1.30;;;7.40;92.30;;;;;;5031071;28;20464;-71
2021/04/28 01:45:10;;;;;;;1.20;1.00;;;7.30;93.20;;;;;;5029356;28;20461;-70
2021/04/28 01:47:37;;;;;;;2.80;1.47;;;7.20;92.90;;;;;;5032038;28;20506;-71
2021/04/28 01:50:05;;;;;;;2.17;1.47;;;7.10;93.70;;;;;;5029302;28;20503;-71
2021/04/28 01:52:32;;;;;;;2.23;1.63;;;7.20;93.80;;;;;;5030778;28;20464;-70
2021/04/28 01:55:03;;;;;;;1.70;1.70;;;7.40;92.70;;;;;;5029269;28;20461;-70
2021/04/28 01:57:30;;;;;;;1.87;1.20;;;7.40;92.70;;;;;;5031933;28;20467;-70
2021/04/28 02:00:01;;;;;;;1.63;1.50;;;7.40;93.20;;;;;;5029063;28;20492;-71
2021/04/28 02:02:28;;;;;;;1.20;1.10;;;7.30;93.20;;;;;;5031908;28;20462;-70
2021/04/28 02:04:55;;;;;;;1.20;1.07;;;7.20;93.60;;;;;;5028917;28;20463;-70
2021/04/28 02:07:22;;;;;;;1.30;1.10;;;7.10;93.80;;;;;;5030677;28;20461;-70
2021/04/28 02:09:49;;;;;;;2.27;1.57;;;7.00;94.00;;;;;;5028876;28;20474;-70
2021/04/28 02:12:17;;;;;;;1.20;1.03;;;7.00;94.50;;;;;;5031401;28;20840;-70
2021/04/28 02:14:48;;;;;;;1.30;1.23;;;7.00;94.20;;;;;;5028430;28;20449;-70
2021/04/28 02:17:15;;;;;;;1.20;1.17;;;6.90;94.80;;;;;;5031774;28;20476;-70
2021/04/28 02:19:42;;;;;;;1.77;1.73;;;6.90;94.60;;;;;;5028627;28;20512;-70
2021/04/28 02:22:09;;;;;;;1.30;1.23;;;6.80;94.90;;;;;;5031705;28;21096;-70
2021/04/28 02:24:36;;;;;;;3.60;1.60;;;6.70;96.00;;;;;;5027294;28;20457;-70
2021/04/28 02:27:03;;;;;;;2.40;1.87;;;6.80;95.60;;;;;;5031719;28;20458;-70
2021/04/28 02:29:31;;;;;;;1.90;1.60;;;6.80;95.40;;;;;;5028781;28;20498;-70
2021/04/28 02:31:57;;;;;;;1.60;1.53;;;6.80;95.40;;;;;;5031470;28;20825;-70
2021/04/28 02:34:24;;;;;;;1.20;1.10;;;6.60;95.90;;;;;;5027687;28;20776;-71
2021/04/28 02:36:55;;;;;;;1.40;1.30;;;6.60;96.10;;;;;;5030374;28;20496;-70
2021/04/28 02:39:27;;;;;;;1.50;1.30;;;6.60;96.10;;;;;;5028569;28;20492;-70
2021/04/28 02:41:55;;;;;;;1.30;1.20;;;6.80;95.10;;;;;;5031501;28;20488;-70
2021/04/28 02:44:26;;;;;;;2.73;1.70;;;6.70;95.10;;;;;;5028737;28;20814;-70
2021/04/28 02:46:57;;;;;;;2.60;1.50;;;6.70;95.50;;;;;;5031436;28;20452;-70
2021/04/28 02:49:25;;;;;;;1.20;1.00;;;6.40;97.00;;;;;;5028813;28;20459;-69
2021/04/28 02:51:53;;;;;;;1.20;1.00;;;6.40;96.90;;;;;;5031289;28;20456;-70
2021/04/28 02:54:21;;;;;;;1.30;1.27;;;6.40;96.80;;;;;;5028443;28;20456;-71
2021/04/28 02:56:50;;;;;;;1.43;1.27;;;6.30;97.10;;;;;;5031080;28;20491;-70
2021/04/28 02:59:18;;;;;;;1.30;1.10;;;6.30;97.20;;;;;;5029134;28;20486;-71
2021/04/28 03:01:46;;;;;;;1.37;1.20;;;6.30;97.10;;;;;;5031127;28;20482;-70
2021/04/28 03:04:16;;;;;;;1.30;1.20;;;6.30;97.10;;;;;;5031128;28;20494;-69
2021/04/28 03:06:43;;;;;;;1.30;1.10;;;6.50;96.50;;;;;;5029841;28;20806;-70
2021/04/28 03:09:09;;;;;;;1.20;1.00;;;6.50;96.80;;;;;;5031001;28;20463;-70
2021/04/28 03:11:39;;;;;;;1.30;1.10;;;6.40;97.00;;;;;;5028719;28;20516;-70
2021/04/28 03:14:06;;;;;;;1.30;1.20;;;6.60;96.80;;;;;;5030962;28;20959;-70
2021/04/28 03:16:33;;;;;;;1.90;1.80;;;6.50;96.40;;;;;;5028511;28;20463;-69
2021/04/28 03:19:02;;;;;;;1.70;1.10;;;6.20;97.30;;;;;;5031321;28;20467;-70
2021/04/28 03:21:31;;;;;;;1.30;1.10;;;6.20;97.70;;;;;;5027324;28;20460;-70
2021/04/28 03:24:00;;;;;;;1.20;1.13;;;6.10;97.90;;;;;;5031625;28;20458;-70
2021/04/28 03:26:27;;;;;;;1.20;1.13;;;6.20;97.10;;;;;;5032311;28;20468;-70
2021/04/28 03:28:53;;;;;;;1.30;1.10;;;6.10;97.80;;;;;;5034358;28;20996;-70
2021/04/28 03:31:20;;;;;;;1.30;1.30;;;5.90;98.00;;;;;;5031335;28;20974;-69
2021/04/28 03:33:46;;;;;;;1.40;1.20;;;6.00;98.00;;;;;;5034444;28;20980;-70
2021/04/28 03:36:13;;;;;;;1.63;1.20;;;6.00;98.00;;;;;;5032477;28;20462;-70
2021/04/28 03:38:41;;;;;;;1.60;1.50;;;6.10;98.00;;;;;;5034269;28;20825;-70
2021/04/28 03:41:08;;;;;;;2.63;1.47;;;6.00;98.00;;;;;;5031545;28;21019;-70
2021/04/28 03:43:34;;;;;;;1.30;1.10;;;5.90;98.00;;;;;;5034140;28;20949;-70
2021/04/28 03:46:01;;;;;;;1.30;1.30;;;6.00;98.00;;;;;;5031499;28;20569;-70
2021/04/28 03:48:27;;;;;;;1.43;1.37;;;5.90;98.00;;;;;;5034098;28;20457;-70
2021/04/28 03:50:55;;;;;;;1.70;1.60;;;6.00;98.00;;;;;;5031050;28;20479;-70
2021/04/28 03:53:22;;;;;;;1.50;1.47;;;6.00;98.00;;;;;;5033794;28;20478;-70
2021/04/28 03:55:49;;;;;;;1.20;1.10;;;5.90;98.00;;;;;;5030390;28;20551;-70
2021/04/28 03:58:16;;;;;;;1.33;1.10;;;5.80;98.00;;;;;;5032713;28;20461;-70
2021/04/28 04:00:42;;;;;;;1.40;1.20;;;5.90;98.00;;;;;;5031281;28;20482;-70
2021/04/28 04:03:09;;;;;;;2.17;1.93;;;5.80;98.00;;;;;;5034031;28;20641;-70
2021/04/28 04:05:35;;;;;;;1.77;1.67;;;5.80;98.00;;;;;;5029854;28;21062;-70
2021/04/28 04:08:04;;;;;;;1.40;1.27;;;5.70;98.00;;;;;;5033766;28;20484;-70
2021/04/28 04:10:31;;;;;;;2.13;1.40;;;5.70;98.00;;;;;;5031132;28;20448;-70
2021/04/28 04:12:59;;;;;;;1.30;1.10;;;5.80;98.00;;;;;;5033909;28;20482;-69
2021/04/28 04:15:26;;;;;;;2.23;1.20;;;5.80;98.00;;;;;;5031257;28;20489;-70
2021/04/28 04:17:52;;;;;;;2.70;1.23;;;5.90;98.00;;;;;;5033898;28;20495;-70
2021/04/28 04:20:19;;;;;;;1.63;1.40;;;6.00;98.00;;;;;;5030940;28;21058;-70
2021/04/28 04:22:46;;;;;;;1.50;1.37;;;5.90;98.00;;;;;;5033624;28;20466;-70
2021/04/28 04:25:13;;;;;;;1.20;1.00;;;6.00;98.00;;;;;;5030813;28;20460;-70
2021/04/28 04:27:40;;;;;;;1.43;1.43;;;5.90;98.00;;;;;;5033308;28;20467;-70
2021/04/28 04:30:11;;;;;;;1.20;1.00;;;5.80;98.00;;;;;;5030861;28;20490;-70
2021/04/28 04:32:37;;;;;;;1.70;1.43;;;5.80;98.00;;;;;;5033403;28;20486;-70
2021/04/28 04:35:05;;;;;;;1.20;1.10;;;5.70;98.00;;;;;;5030761;28;20459;-70
2021/04/28 04:37:32;;;;;;;1.70;1.30;;;5.80;98.00;;;;;;5032739;28;20822;-70
2021/04/28 04:39:58;;;;;;;1.30;1.10;;;5.90;98.00;;;;;;5030559;28;21020;-71
2021/04/28 04:42:25;;;;;;;1.30;1.10;;;5.80;98.00;;;;;;5032064;28;20447;-70
2021/04/28 04:44:52;;;;;;;1.20;1.10;;;5.90;98.00;;;;;;5030318;28;20458;-70
2021/04/28 04:47:19;;;;;;;1.43;1.37;;;5.80;98.00;;;;;;5032996;28;20492;-71
2021/04/28 04:49:46;;;;;;;2.23;1.77;;;5.90;98.00;;;;;;5030136;28;20922;-71
2021/04/28 04:52:13;;;;;;;1.20;1.10;;;6.00;98.00;;;;;;5032771;28;20489;-71
2021/04/28 04:54:39;;;;;;;2.80;1.97;;;6.00;98.00;;;;;;5029976;28;20452;-70
2021/04/28 04:57:07;;;;;;;1.60;1.40;;;6.10;98.00;;;;;;5032806;28;20462;-71
2021/04/28 04:59:34;;;;;;;2.67;1.87;;;6.20;98.00;;;;;;5030025;28;20488;-71
2021/04/28 05:02:01;;;;;;;1.30;1.30;;;6.10;98.00;;;;;;5033108;28;20462;-70
2021/04/28 05:04:29;;;;;;;1.30;1.10;;;6.10;98.00;;;;;;5030890;28;20571;-71
2021/04/28 05:06:56;;;;;;;1.67;1.60;;;6.20;98.00;;;;;;5032958;28;20474;-71
2021/04/28 05:09:22;;;;;;;1.87;1.73;;;6.20;98.00;;;;;;5032961;28;20481;-71
2021/04/28 05:11:49;;;;;;;1.20;1.00;;;6.20;98.00;;;;;;5030076;28;20463;-71
2021/04/28 05:14:15;;;;;;;2.60;1.90;;;6.00;98.00;;;;;;5032634;28;20809;-72
2021/04/28 05:16:42;;;;;;;1.20;1.10;;;6.00;98.00;;;;;;5029327;28;20964;-71
2021/04/28 05:19:09;;;;;;;1.50;1.27;;;6.00;98.00;;;;;;5031332;28;20470;-71
2021/04/28 05:21:36;;;;;;;1.20;0.97;;;6.00;98.00;;;;;;5029921;28;21023;-70
2021/04/28 05:24:03;;;;;;;2.13;1.40;;;6.00;98.00;;;;;;5032368;28;21030;-71
2021/04/28 05:26:32;;;;;;;3.67;1.83;;;6.20;98.00;;;;;;5029493;28;20469;-71
2021/04/28 05:28:58;;;;;;;1.83;1.30;;;6.30;98.00;;;;;;5032101;28;20470;-71
2021/04/28 05:31:24;;;;;;;1.87;1.63;;;6.50;98.00;;;;;;5029780;28;20781;-71
2021/04/28 05:33:51;;;;;;;1.30;1.10;;;6.60;98.00;;;;;;5032039;28;20985;-71
2021/04/28 05:36:19;;;;;;;1.60;1.40;;;6.60;98.00;;;;;;5027853;28;20483;-71
2021/04/28 05:38:46;;;;;;;3.20;1.63;;;6.70;98.00;;;;;;5032013;28;20471;-70
2021/04/28 05:41:13;;;;;;;2.00;1.57;;;6.80;98.00;;;;;;5029916;28;20484;-71
2021/04/28 05:43:39;;;;;;;1.60;1.60;;;6.90;98.00;;;;;;5031728;28;20462;-70
2021/04/28 05:46:08;;;;;;;1.63;1.40;;;6.90;98.00;;;;;;5027453;28;20460;-70
2021/04/28 05:48:34;;;;;;;2.70;1.30;;;7.00;98.00;;;;;;5029262;28;20462;-71
2021/04/28 05:51:01;;;;;;;1.20;1.10;;;7.10;98.00;;;;;;5028516;28;20463;-71
2021/04/28 05:53:28;;;;;;;1.20;1.13;;;7.30;97.90;;;;;;5031524;28;20460;-72
2021/04/28 05:55:55;;;;;;;1.40;1.20;;;7.50;96.80;;;;;;5028717;28;20461;-71
2021/04/28 05:58:22;;;;;;;1.40;1.23;;;7.70;96.70;;;;;;5032001;28;20453;-70
2021/04/28 06:00:48;;;;;;;1.70;1.20;;;7.80;96.50;;;;;;5028927;28;20535;-70
2021/04/28 06:03:15;;;;;;;1.63;1.57;;;8.00;96.00;;;;;;5031691;28;20462;-69
2021/04/28 06:05:42;;;;;;;1.60;1.50;;;7.90;96.50;;;;;;5028300;28;20871;-69
2021/04/28 06:08:08;;;;;;;1.30;1.20;;;7.90;96.40;;;;;;5030403;28;20458;-69
2021/04/28 06:10:35;;;;;;;1.60;1.37;;;8.00;96.10;;;;;;5028288;28;20462;-69
2021/04/28 06:13:02;;;;;;;1.57;1.30;;;8.00;96.90;;;;;;5030335;28;20469;-69
2021/04/28 06:15:29;;;;;;;1.77;1.33;;;8.10;96.50;;;;;;5028506;28;20508;-69
2021/04/28 06:17:55;;;;;;;1.20;1.07;;;8.10;95.70;;;;;;5031685;28;20467;-69
2021/04/28 06:20:22;;;;;;;2.43;1.53;;;8.30;95.90;;;;;;5027118;28;20490;-69
2021/04/28 06:22:48;;;;;;;2.90;1.93;;;8.50;96.00;;;;;;5031727;28;21090;-69
2021/04/28 06:25:16;;;;;;;1.40;1.20;;;8.70;96.30;;;;;;5028477;28;20454;-70
2021/04/28 06:27:43;;;;;;;2.07;1.63;;;8.80;96.40;;;;;;5031456;28;20455;-70
2021/04/28 06:30:11;;;;;;;2.40;1.40;;;9.00;95.70;;;;;;5028444;28;20456;-69
2021/04/28 06:32:38;;;;;;;1.63;1.50;;;9.10;95.80;;;;;;5031595;28;20494;-69
2021/04/28 06:35:07;;;;;;;1.30;1.10;;;9.30;95.70;;;;;;5028308;28;20555;-70
2021/04/28 06:37:34;;;;;;;1.40;1.10;;;9.40;94.40;;;;;;5031115;28;20459;-70
2021/04/28 06:40:00;;;;;;;1.50;1.13;;;9.50;94.50;;;;;;5027987;28;21043;-70
2021/04/28 06:42:31;;;;;;;1.67;1.47;;;9.60;94.30;;;;;;5031420;28;20503;-70
2021/04/28 06:44:58;;;;;;;4.90;1.60;;;9.80;94.00;;;;;;5028193;28;21213;-70
2021/04/28 06:47:26;;;;;;;1.50;1.30;;;9.90;93.80;;;;;;5031432;28;20547;-71
2021/04/28 06:49:54;;;;;;;2.60;2.17;;;10.00;93.40;;;;;;5028081;28;20455;-71
2021/04/28 06:52:24;;;;;;;3.00;1.83;;;10.20;93.50;;;;;;5031545;28;20465;-69
2021/04/28 06:54:51;;;;;;;1.97;1.30;;;10.30;91.50;;;;;;5028513;28;20466;-69
2021/04/28 06:57:21;;;;;;;1.83;1.70;;;10.50;92.20;;;;;;5031758;28;20830;-70
2021/04/28 06:59:47;;;;;;;2.03;1.70;;;10.60;91.70;;;;;;5030351;28;21130;-70
2021/04/28 07:02:14;;;;;;;3.20;1.30;;;10.80;91.40;;;;;;5035274;28;20991;-70
2021/04/28 07:04:42;;;;;;;3.63;1.73;;;10.80;91.70;;;;;;5032542;28;20524;-70
2021/04/28 07:07:13;;;;;;;1.70;1.27;;;10.90;91.90;;;;;;5035178;28;20494;-70
2021/04/28 07:09:39;;;;;;;1.20;1.00;;;11.10;91.40;;;;;;5034467;28;20469;-71
2021/04/28 07:12:07;;;;;;;1.57;1.30;;;11.20;90.80;;;;;;5032560;28;20455;-70
2021/04/28 07:14:33;;;;;;;2.00;1.90;;;11.30;90.50;;;;;;5034993;28;20487;-68
2021/04/28 07:17:00;;;;;;;3.57;1.73;;;11.40;90.10;;;;;;5031583;28;20465;-69
2021/04/28 07:19:26;;;;;;;1.40;1.20;;;11.50;90.60;;;;;;5033900;28;20973;-71
2021/04/28 07:21:55;;;;;;;2.20;1.77;;;11.70;90.40;;;;;;5030109;28;20486;-69
2021/04/28 07:24:21;;;;;;;2.13;1.77;;;12.00;90.00;;;;;;5034031;28;20469;-72
2021/04/28 07:26:48;;;;;;;2.83;1.80;;;12.20;88.40;;;;;;5030965;28;20848;-70
2021/04/28 07:29:15;;;;;;;2.20;1.80;;;12.40;88.60;;;;;;5033755;28;20467;-70
2021/04/28 07:31:43;;;;;;;2.03;1.40;;;12.50;88.40;;;;;;5031324;28;20447;-69
2021/04/28 07:34:09;;;;;;;1.60;1.47;;;12.80;88.20;;;;;;5033803;28;20465;-70
2021/04/28 07:36:36;;;;;;;2.17;1.60;;;12.90;88.70;;;;;;5031242;28;20772;-70
2021/04/28 07:39:05;;;;;;;1.77;1.30;;;13.10;87.50;;;;;;5033947;28;20927;-69
2021/04/28 07:41:32;;;;;;;4.23;1.80;;;13.30;87.90;;;;;;5031489;28;20490;-69
2021/04/28 07:44:00;;;;;;;3.63;1.63;;;13.50;87.00;;;;;;5033760;28;20462;-70
2021/04/28 07:46:27;;;;;;;2.33;1.90;;;13.70;86.70;;;;;;5031534;28;20466;-69
2021/04/28 07:48:54;;;;;;;2.07;1.30;;;13.90;86.30;;;;;;5034223;28;20458;-70
2021/04/28 07:51:21;;;;;;;3.60;2.33;;;14.00;85.40;;;;;;5031456;28;20984;-69
2021/04/28 07:53:48;;;;;;;1.60;1.30;;;14.20;86.00;;;;;;5032652;28;20934;-69
2021/04/28 07:56:16;;;;;;;1.73;1.43;;;14.30;86.30;;;;;;5029740;28;20888;-70
2021/04/28 07:58:45;;;;;;;2.70;1.77;;;14.40;84.60;;;;;;5033761;28;20462;-70
2021/04/28 08:01:13;;;;;;;1.80;1.30;;;14.40;83.60;;;;;;5029281;28;20497;-69
2021/04/28 08:03:40;;;;;;;1.80;1.53;;;14.50;84.00;;;;;;5033402;28;20454;-69
2021/04/28 08:06:07;;;;;;;3.33;1.83;;;14.60;84.00;;;;;;5030573;28;20516;-69
2021/04/28 08:08:33;;;;;;;2.30;2.03;;;14.70;84.90;;;;;;5033668;28;20459;-69
2021/04/28 08:11:00;;;;;;;2.30;1.97;;;14.80;84.30;;;;;;5029668;28;20459;-69
2021/04/28 08:13:27;;;;;;;2.10;1.73;;;15.00;84.40;;;;;;5031932;28;20911;-69
2021/04/28 08:15:55;;;;;;;1.90;1.57;;;15.20;83.10;;;;;;5030426;28;20933;-69
2021/04/28 08:18:22;;;;;;;1.80;1.53;;;15.30;83.50;;;;;;5033274;28;20952;-69
2021/04/28 08:20:48;;;;;;;1.83;1.60;;;15.50;82.90;;;;;;5030274;28;20509;-70
2021/04/28 08:23:15;;;;;;;2.13;1.60;;;15.60;81.60;;;;;;5032840;28;20462;-69
2021/04/28 08:25:42;;;;;;;2.93;2.60;;;15.60;82.40;;;;;;5030125;28;20805;-69
2021/04/28 08:28:09;;;;;;;1.97;1.40;;;15.70;81.70;;;;;;5033101;28;20493;-69
2021/04/28 08:30:39;;;;;;;1.83;1.63;;;15.90;81.70;;;;;;5029989;28;20490;-70
2021/04/28 08:33:06;;;;;;;1.40;1.40;;;16.00;80.60;;;;;;5032800;28;20459;-70
2021/04/28 08:35:33;;;;;;;2.47;1.97;;;16.20;80.30;;;;;;5030335;28;20937;-69
2021/04/28 08:37:59;;;;;;;2.27;1.47;;;16.30;79.90;;;;;;5033058;28;20457;-70
2021/04/28 08:40:30;;;;;;;1.50;1.30;;;16.40;78.90;;;;;;5030169;28;20521;-65
2021/04/28 08:42:56;;;;;;;5.30;2.33;;;16.50;79.60;;;;;;5032415;28;20470;-70
2021/04/28 08:45:23;;;;;;;1.70;1.60;;;16.60;78.20;;;;;;5030193;28;20459;-73
2021/04/28 08:47:52;;;;;;;5.97;1.70;;;16.70;78.60;;;;;;5032667;28;20465;-69
2021/04/28 08:50:18;;;;;;;3.10;1.83;;;16.90;79.30;;;;;;5029736;28;20455;-69
2021/04/28 08:52:45;;;;;;;4.30;1.63;;;17.20;78.90;;;;;;5032646;28;20458;-70
2021/04/28 08:55:13;;;;;;;2.70;2.20;;;17.30;78.70;;;;;;5029679;28;20459;-71
2021/04/28 08:57:39;;;;;;;2.17;1.83;;;17.50;77.70;;;;;;5032522;28;20454;-70
2021/04/28 09:00:09;;;;;;;1.40;1.20;;;17.60;76.30;;;;;;5028090;28;20489;-70
2021/04/28 09:02:49;;;;;;;3.53;1.57;;;17.70;76.90;;;;;;5032191;28;20799;-70
2021/04/28 09:05:18;;;;;;;1.83;1.50;;;17.80;77.00;;;;;;5029198;28;20462;-70
2021/04/28 09:07:46;;;;;;;2.80;1.97;;;18.00;75.90;;;;;;5029671;28;20470;-70
2021/04/28 09:10:15;;;;;;;3.27;1.87;;;18.20;76.10;;;;;;5029585;28;20465;-70
2021/04/28 09:12:51;;;;;;;4.60;2.70;;;18.30;75.30;;;;;;5032062;28;20458;-69
2021/04/28 09:15:34;;;;;;;1.80;1.50;;;18.50;75.30;;;;;;5028010;28;20937;-70
2021/04/28 09:18:03;;;;;;;4.13;2.33;;;18.70;75.70;;;;;;5031946;28;21102;-70
2021/04/28 09:20:33;;;;;;;2.73;1.97;;;18.90;74.00;;;;;;5029388;28;20988;-71
2021/04/28 09:23:04;;;;;;;1.73;1.60;;;18.90;73.00;;;;;;5031933;28;20451;-71
2021/04/28 09:25:41;;;;;;;1.53;1.40;;;19.00;73.10;;;;;;5028076;28;20493;-70
2021/04/28 09:28:29;;;;;;;2.23;1.67;;;19.10;71.90;;;;;;5031825;28;20470;-71
2021/04/28 09:31:14;;;;;;;3.40;2.07;;;19.30;71.30;;;;;;5029087;28;20964;-71
2021/04/28 09:33:51;;;;;;;4.47;2.27;;;19.50;71.50;;;;;;5031297;28;20528;-70
2021/04/28 09:36:32;;;;;;;1.70;1.37;;;19.50;70.50;;;;;;5027106;28;20469;-71
2021/04/28 09:39:02;;;;;;;3.33;1.60;;;19.70;71.30;;;;;;5031765;28;20455;-71
2021/04/28 09:41:37;;;;;;;3.77;2.00;;;19.80;69.50;;;;;;5029174;28;20489;-72
2021/04/28 09:44:27;;;;;;;7.43;2.73;;;19.80;69.10;;;;;;5031360;28;20465;-71
2021/04/28 09:47:05;;;;;;;3.17;2.20;;;19.90;69.40;;;;;;5028716;28;20455;-71
2021/04/28 09:49:53;;;;;;;4.60;2.80;;;19.90;69.10;;;;;;5031647;28;20455;-71
2021/04/28 09:52:40;;;;;;;2.60;2.10;;;20.00;69.40;;;;;;5028473;28;20478;-69
2021/04/28 09:55:08;;;;;;;2.30;2.10;;;20.20;70.30;;;;;;5028647;28;20533;-71
2021/04/28 09:57:36;;;;;;;6.33;2.43;;;20.20;67.90;;;;;;5031997;28;20807;-72
2021/04/28 10:00:12;;;;;;;3.63;2.83;;;20.20;69.30;;;;;;5028913;28;20490;-70
2021/04/28 10:02:41;;;;;;;2.50;1.57;;;20.30;67.80;;;;;;5031215;28;20461;-71
2021/04/28 10:05:18;;;;;;;2.80;1.83;;;20.20;66.50;;;;;;5028681;28;20955;-71
2021/04/28 10:07:46;;;;;;;3.53;2.37;;;20.40;66.10;;;;;;5031585;28;20520;-71
2021/04/28 10:10:15;;;;;;;2.70;2.17;;;20.60;66.20;;;;;;5027503;28;20805;-72
2021/04/28 10:12:41;;;;;;;1.57;1.40;;;20.80;66.20;;;;;;5031021;28;20482;-71
2021/04/28 10:15:09;;;;;;;1.97;1.57;;;21.00;66.80;;;;;;5027329;28;20977;-71
2021/04/28 10:17:36;;;;;;;1.80;1.57;;;21.20;66.50;;;;;;5030078;28;20469;-71
2021/04/28 10:20:04;;;;;;;4.13;1.83;;;21.20;65.40;;;;;;5028469;28;20996;-71
2021/04/28 10:22:34;;;;;;;2.73;1.83;;;21.20;64.40;;;;;;5030902;28;20969;-71
2021/04/28 10:25:05;;;;;;;2.90;1.83;;;21.20;66.10;;;;;;5029474;28;20505;-71
2021/04/28 10:27:33;;;;;;;4.73;2.60;;;21.10;66.10;;;;;;5030719;28;20466;-71
2021/04/28 10:30:01;;;;;;;2.00;1.50;;;21.20;66.00;;;;;;5029081;28;20458;-72
2021/04/28 10:32:28;;;;;;;3.77;1.77;;;21.40;64.00;;;;;;5029660;28;20478;-71
2021/04/28 10:34:59;;;;;;;2.53;1.80;;;21.40;63.00;;;;;;5031530;28;20508;-72
2021/04/28 10:37:29;;;;;;;1.87;1.80;;;21.40;62.70;;;;;;5033417;28;20462;-71
2021/04/28 10:39:56;;;;;;;2.73;1.70;;;21.60;62.10;;;;;;5034889;28;20474;-71
2021/04/28 10:42:31;;;;;;;4.60;1.93;;;21.50;61.70;;;;;;5032158;28;20459;-71
2021/04/28 10:44:58;;;;;;;1.67;1.40;;;21.60;61.70;;;;;;5033837;28;21031;-71
2021/04/28 10:47:35;;;;;;;2.03;1.60;;;21.40;60.90;;;;;;5032729;28;20459;-72
2021/04/28 10:50:14;;;;;;;4.23;2.20;;;21.60;62.00;;;;;;5034011;28;20540;-69
2021/04/28 10:52:46;;;;;;;2.60;1.80;;;21.90;61.70;;;;;;5034566;28;20497;-71
2021/04/28 10:55:39;;;;;;;2.80;2.30;;;21.90;62.30;;;;;;5032399;28;20959;-70
2021/04/28 10:58:43;;;;;;;4.50;2.30;;;22.00;62.00;;;;;;5034991;28;20465;-71
2021/04/28 11:01:30;;;;;;;3.57;2.07;;;21.90;61.20;;;;;;5031986;28;20486;-70
2021/04/28 11:03:57;;;;;;;3.00;2.23;;;22.00;61.20;;;;;;5025519;28;20467;-71
2021/04/28 11:06:37;;;;;;;2.57;2.00;;;22.30;61.00;;;;;;5031892;28;20458;-71
2021/04/28 11:09:19;;;;;;;2.47;2.20;;;22.40;60.50;;;;;;5035065;28;20462;-71
2021/04/28 11:11:52;;;;;;;4.27;1.53;;;22.40;60.20;;;;;;5031814;28;21039;-70
2021/04/28 11:14:29;;;;;;;5.10;2.00;;;22.30;59.90;;;;;;5031927;28;20456;-70
2021/04/28 11:16:58;;;;;;;1.70;1.60;;;22.40;62.00;;;;;;5031912;28;20542;-70
2021/04/28 11:19:27;;;;;;;1.70;1.50;;;22.50;59.00;;;;;;5034407;28;20505;-70
2021/04/28 11:22:16;;;;;;;3.43;1.83;;;22.30;59.10;;;;;;5032577;28;20544;-71
2021/04/28 11:24:54;;;;;;;3.53;2.20;;;22.40;57.30;;;;;;5034575;28;20466;-72
2021/04/28 11:27:53;;;;;;;3.30;1.97;;;22.70;59.80;;;;;;5032146;28;20497;-72
2021/04/28 11:30:31;;;;;;;2.27;1.60;;;22.70;55.40;;;;;;5029431;28;20462;-72
2021/04/28 11:33:36;;;;;;;2.23;1.50;;;23.00;52.70;;;;;;5034466;28;20491;-70
2021/04/28 11:36:09;;;;;;;1.83;1.50;;;23.10;50.20;;;;;;5028424;28;20454;-72
2021/04/28 11:38:39;;;;;;;3.80;2.27;;;23.10;48.50;;;;;;5034352;28;20465;-72
2021/04/28 11:41:08;;;;;;;1.63;1.20;;;23.10;50.50;;;;;;5030931;28;20569;-73
2021/04/28 11:43:37;;;;;;;6.17;2.43;;;23.60;52.60;;;;;;5033633;28;20814;-73
2021/04/28 11:46:09;;;;;;;1.97;1.60;;;24.10;51.90;;;;;;5029614;28;20819;-73
2021/04/28 11:48:37;;;;;;;3.40;2.33;;;24.30;48.90;;;;;;5034047;28;20458;-72
2021/04/28 11:51:06;;;;;;;1.90;1.63;;;24.20;49.80;;;;;;5031022;28;20458;-72
2021/04/28 11:53:32;;;;;;;1.53;1.37;;;24.50;49.10;;;;;;5033168;28;20944;-73
2021/04/28 11:55:59;;;;;;;2.47;1.87;;;24.90;49.70;;;;;;5030656;28;20462;-72
2021/04/28 11:58:28;;;;;;;3.97;2.27;;;24.90;50.40;;;;;;5033602;28;20608;-72
2021/04/28 12:01:05;;;;;;;4.07;2.50;;;24.90;47.80;;;;;;5029980;28;20913;-72
2021/04/28 12:03:53;;;;;;;2.23;1.63;;;24.90;49.10;;;;;;5032643;28;20470;-72
2021/04/28 12:06:28;;;;;;;2.60;1.90;;;25.00;50.70;;;;;;5045258;28;20489;-72
2021/04/28 12:09:11;;;;;;;1.97;1.80;;;25.10;53.20;;;;;;5033090;28;20521;-72
2021/04/28 12:11:40;;;;;;;3.70;2.27;;;25.30;54.80;;;;;;5013122;28;20466;-72
2021/04/28 12:14:07;;;;;;;2.10;1.90;;;25.20;51.60;;;;;;5032279;28;20957;-73
2021/04/28 12:16:40;;;;;;;2.20;1.80;;;25.30;52.00;;;;;;5030629;28;20450;-73
2021/04/28 12:19:09;;;;;;;3.37;2.10;;;25.20;48.60;;;;;;5033434;28;20462;-73
2021/04/28 12:21:37;;;;;;;2.60;2.30;;;24.90;54.50;;;;;;5029629;28;20490;-72
2021/04/28 12:24:05;;;;;;;2.90;2.37;;;24.30;57.60;;;;;;5032889;28;20458;-72
2021/04/28 12:26:31;;;;;;;1.87;1.40;;;23.80;60.20;;;;;;5030003;28;20450;-63
2021/04/28 12:28:58;;;;;;;2.33;1.73;;;23.90;60.20;;;;;;5032879;28;20498;-73
2021/04/28 12:31:48;;;;;;;2.00;1.70;;;24.20;59.20;;;;;;5029778;28;20459;-72
2021/04/28 12:34:19;;;;;;;5.83;2.70;;;24.70;58.70;;;;;;5033135;28;20918;-71
2021/04/28 12:36:46;;;;;;;4.33;2.20;;;24.90;58.10;;;;;;5029407;28;20454;-71
2021/04/28 12:39:25;;;;;;;3.90;2.50;;;24.90;57.20;;;;;;5033292;28;20462;-70
2021/04/28 12:41:55;;;;;;;2.97;2.20;;;24.90;57.20;;;;;;5029942;28;20569;-70
2021/04/28 12:44:22;;;;;;;5.43;1.90;;;24.90;57.20;;;;;;5033003;28;20521;-71
2021/04/28 12:46:53;;;;;;;4.23;2.33;;;25.00;58.00;;;;;;5029726;28;20462;-72
2021/04/28 12:49:24;;;;;;;3.07;2.00;;;25.00;57.70;;;;;;5031038;28;20809;-72
2021/04/28 12:51:56;;;;;;;2.37;2.13;;;25.00;56.50;;;;;;5030559;28;20506;-71
2021/04/28 12:54:30;;;;;;;2.23;1.80;;;25.20;57.00;;;;;;5032604;28;20956;-71
2021/04/28 12:56:59;;;;;;;3.33;1.93;;;25.60;57.20;;;;;;5029573;28;20467;-71
2021/04/28 12:59:26;;;;;;;2.33;2.00;;;26.00;55.70;;;;;;5033048;28;20941;-71
2021/04/28 13:02:00;;;;;;;3.50;2.47;;;26.30;55.70;;;;;;5030352;28;20490;-71
2021/04/28 13:04:28;;;;;;;2.63;2.03;;;26.40;54.60;;;;;;5032835;28;20795;-71